createdAt,value
2019-04-05T00:00:47.000Z,40.70
2019-04-05T00:05:05.837Z,39.63
2019-04-05T00:09:22.473Z,35.00
2019-04-05T00:13:38.942Z,33.17
2019-04-05T00:17:55.854Z,31.30
2019-04-05T00:22:12.347Z,40.23
2019-04-05T00:26:28.840Z,40.53
2019-04-05T00:30:45.603Z,41.03
2019-04-05T00:35:05.868Z,33.10
2019-04-05T00:39:22.350Z,39.33
2019-04-05T00:43:38.928Z,41.87
2019-04-05T00:47:55.828Z,43.43
2019-04-05T00:52:12.446Z,45.20
2019-04-05T00:56:29.033Z,42.23
2019-04-05T01:00:45.698Z,40.27
2019-04-05T01:05:04.467Z,40.40
2019-04-05T01:09:21.376Z,44.97
2019-04-05T01:13:37.946Z,37.57
2019-04-05T01:17:54.637Z,40.30
2019-04-05T01:22:13.510Z,44.30
2019-04-05T01:26:30.684Z,45.23
2019-04-05T01:30:47.725Z,38.43
2019-04-05T01:35:05.386Z,33.93
2019-04-05T01:39:21.856Z,35.67
2019-04-05T01:43:38.660Z,31.50
2019-04-05T01:47:55.748Z,35.23
2019-04-05T01:52:12.342Z,25.33
2019-04-05T01:56:28.962Z,35.87
2019-04-05T02:00:45.528Z,43.40
2019-04-05T02:05:05.510Z,29.03
2019-04-05T02:09:22.290Z,36.20
2019-04-05T02:13:38.767Z,42.63
2019-04-05T02:17:56.042Z,34.67
2019-04-05T02:22:12.633Z,35.07
2019-04-05T02:26:29.297Z,39.70
2019-04-05T02:30:45.906Z,43.10
2019-04-05T02:35:05.206Z,39.30
2019-04-05T02:39:34.694Z,37.10
2019-04-05T02:43:54.760Z,32.83
2019-04-05T02:48:12.467Z,45.27
2019-04-05T02:52:29.303Z,48.20
2019-04-05T02:56:47.102Z,41.63
2019-04-05T03:01:03.709Z,42.53
2019-04-05T03:05:23.806Z,46.13
2019-04-05T03:09:41.757Z,37.97
2019-04-05T03:14:00.935Z,47.73
2019-04-05T03:18:18.085Z,34.17
2019-04-05T03:22:35.570Z,33.17
2019-04-05T03:26:59.439Z,16.93
2019-04-05T03:31:23.492Z,21.70
2019-04-05T03:35:35.951Z,34.33
2019-04-05T03:39:52.975Z,26.00
2019-04-05T03:44:09.823Z,46.90
2019-04-05T03:48:26.658Z,41.70
2019-04-05T03:52:43.377Z,53.60
2019-04-05T03:57:00.122Z,39.63
2019-04-05T04:01:16.842Z,33.30
2019-04-05T04:05:33.781Z,51.77
2019-04-05T04:09:50.462Z,49.77
2019-04-05T04:14:07.811Z,52.10
2019-04-05T04:18:24.707Z,35.47
2019-04-05T04:22:41.645Z,37.73
2019-04-05T04:26:58.701Z,41.47
2019-04-05T04:31:15.490Z,39.73
2019-04-05T04:35:32.902Z,43.53
2019-04-05T04:39:49.566Z,43.10
2019-04-05T04:44:10.306Z,44.37
2019-04-05T04:48:27.819Z,43.27
2019-04-05T04:52:44.612Z,49.53
2019-04-05T04:57:01.349Z,47.20
2019-04-05T05:01:18.387Z,46.33
2019-04-05T05:05:35.394Z,47.30
2019-04-05T05:09:52.039Z,54.90
2019-04-05T05:14:09.226Z,45.97
2019-04-05T05:18:25.950Z,48.23
2019-04-05T05:22:42.969Z,45.00
2019-04-05T05:27:00.030Z,71.50
2019-04-05T05:31:17.709Z,49.40
2019-04-05T05:35:34.562Z,47.67
2019-04-05T05:39:51.698Z,40.67
2019-04-05T05:44:08.315Z,40.23
2019-04-05T05:48:25.361Z,32.07
2019-04-05T05:52:42.378Z,43.07
2019-04-05T05:56:58.940Z,34.67
2019-04-05T06:01:15.509Z,44.70
2019-04-05T06:05:32.572Z,33.83
2019-04-05T06:09:49.077Z,32.90
2019-04-05T06:14:05.699Z,38.73
2019-04-05T06:18:22.487Z,54.37
2019-04-05T06:22:39.649Z,45.20
2019-04-05T06:26:56.144Z,53.83
2019-04-05T06:31:12.676Z,42.50
2019-04-05T06:35:29.203Z,35.27
2019-04-05T06:39:46.059Z,40.63
2019-04-05T06:44:02.773Z,48.23
2019-04-05T06:48:19.871Z,35.90
2019-04-05T06:52:36.484Z,46.97
2019-04-05T06:56:53.010Z,49.50
2019-04-05T07:01:09.535Z,45.07
2019-04-05T07:05:26.443Z,38.90
2019-04-05T07:09:43.246Z,39.37
2019-04-05T07:14:00.712Z,32.80
2019-04-05T07:18:17.531Z,34.93
2019-04-05T07:22:39.130Z,44.43
2019-04-05T07:26:52.964Z,46.83
2019-04-05T07:31:09.483Z,33.40
2019-04-05T07:35:33.415Z,41.43
2019-04-05T07:39:44.719Z,43.03
2019-04-05T07:44:01.617Z,46.37
2019-04-05T07:48:18.163Z,29.23
2019-04-05T07:52:35.088Z,24.37
2019-04-05T07:56:51.686Z,42.77
2019-04-05T08:01:08.604Z,38.10
2019-04-05T08:05:25.494Z,38.63
2019-04-05T08:09:42.580Z,42.60
2019-04-05T08:14:00.671Z,44.03
2019-04-05T08:18:17.248Z,46.37
2019-04-05T08:22:34.073Z,48.87
2019-04-05T08:26:50.687Z,38.33
2019-04-05T08:31:10.866Z,44.37
2019-04-05T08:35:25.923Z,37.87
2019-04-05T08:39:43.015Z,45.20
2019-04-05T08:43:59.729Z,39.63
2019-04-05T08:48:16.784Z,35.90
2019-04-05T08:52:33.276Z,51.93
2019-04-05T08:56:49.780Z,46.37
2019-04-05T09:01:06.408Z,37.33
2019-04-05T09:05:23.944Z,47.33
2019-04-05T09:09:41.102Z,33.63
2019-04-05T09:13:57.906Z,36.73
2019-04-05T09:18:14.393Z,30.60
2019-04-05T09:22:31.341Z,47.07
2019-04-05T09:26:48.161Z,49.67
2019-04-05T09:31:04.698Z,50.97
2019-04-05T09:35:21.447Z,43.77
2019-04-05T09:39:38.023Z,43.87
2019-04-05T09:43:55.190Z,42.30
2019-04-05T09:48:12.203Z,35.00
2019-04-05T09:52:29.282Z,46.33
2019-04-05T09:56:46.088Z,45.93
2019-04-05T10:01:03.213Z,41.57
2019-04-05T10:05:19.748Z,47.00
2019-04-05T10:09:36.291Z,41.10
2019-04-05T10:13:52.812Z,46.63
2019-04-05T10:18:09.318Z,49.63
2019-04-05T10:22:25.843Z,46.27
2019-04-05T10:26:42.351Z,43.03
2019-04-05T10:30:58.875Z,37.20
2019-04-05T10:35:15.464Z,33.10
2019-04-05T10:39:32.001Z,43.90
2019-04-05T10:43:48.500Z,44.27
2019-04-05T10:48:05.134Z,39.57
2019-04-05T10:52:22.891Z,37.93
2019-04-05T10:56:39.374Z,39.43
2019-04-05T11:00:55.909Z,46.13
2019-04-05T11:05:13.966Z,43.90
2019-04-05T11:09:30.483Z,43.57
2019-04-05T11:13:47.053Z,43.87
2019-04-05T11:18:04.665Z,30.23
2019-04-05T11:22:21.645Z,47.00
2019-04-05T11:26:38.186Z,35.77
2019-04-05T11:30:54.781Z,32.53
2019-04-05T11:35:11.503Z,40.33
2019-04-05T11:39:28.427Z,47.40
2019-04-05T11:43:46.877Z,34.10
2019-04-05T11:48:04.513Z,40.93
2019-04-05T11:52:21.147Z,41.80
2019-04-05T11:56:37.775Z,43.03
2019-04-05T12:00:56.211Z,44.90
2019-04-05T12:05:14.662Z,46.33
2019-04-05T12:09:31.231Z,46.00
2019-04-05T12:13:48.017Z,46.93
2019-04-05T12:18:05.298Z,48.00
2019-04-05T12:22:21.925Z,46.67
2019-04-05T12:26:38.418Z,39.60
2019-04-05T12:30:55.218Z,44.13
2019-04-05T12:35:12.114Z,42.03
2019-04-05T12:39:29.093Z,36.63
2019-04-05T12:43:45.908Z,39.73
2019-04-05T12:48:02.534Z,42.70
2019-04-05T12:52:23.001Z,47.30
2019-04-05T12:56:37.909Z,47.70
2019-04-05T13:00:56.133Z,40.57
2019-04-05T13:05:13.091Z,43.40
2019-04-05T13:09:29.935Z,37.33
2019-04-05T13:13:46.558Z,47.30
2019-04-05T13:18:03.303Z,35.70
2019-04-05T13:22:22.748Z,37.67
2019-04-05T13:26:41.683Z,45.13
2019-04-05T13:30:58.238Z,42.13
2019-04-05T13:35:16.819Z,40.03
2019-04-05T13:39:33.427Z,37.20
2019-04-05T13:43:50.192Z,34.37
2019-04-05T13:48:09.052Z,46.40
2019-04-05T13:52:25.621Z,35.20
2019-04-05T13:56:42.553Z,43.87
2019-04-05T14:00:59.058Z,37.57
2019-04-05T14:05:16.088Z,40.17
2019-04-05T14:09:32.692Z,36.03
2019-04-05T14:13:49.229Z,43.57
2019-04-05T14:18:05.961Z,42.43
2019-04-05T14:22:23.036Z,42.50
2019-04-05T14:26:39.876Z,41.93
2019-04-05T14:30:56.707Z,31.40
2019-04-05T14:35:13.477Z,37.20
2019-04-05T14:39:30.341Z,38.90
2019-04-05T14:43:46.832Z,42.00
2019-04-05T14:48:03.591Z,39.00
2019-04-05T14:52:20.127Z,36.83
2019-04-05T14:56:36.762Z,32.23
2019-04-05T15:00:53.545Z,38.47
2019-04-05T15:05:10.190Z,38.77
2019-04-05T15:09:26.970Z,32.23
2019-04-05T15:13:43.516Z,36.60
2019-04-05T15:18:00.038Z,34.33
2019-04-05T15:22:16.850Z,34.00
2019-04-05T15:26:33.570Z,36.07
2019-04-05T15:30:50.100Z,34.10
2019-04-05T15:35:07.667Z,42.20
2019-04-05T15:39:24.430Z,31.23
2019-04-05T15:43:40.985Z,44.47
2019-04-05T15:47:57.870Z,45.00
2019-04-05T15:52:18.969Z,40.90
2019-04-05T15:56:34.050Z,41.03
2019-04-05T16:00:51.307Z,38.77
2019-04-05T16:05:08.462Z,42.57
2019-04-05T16:09:25.269Z,34.47
2019-04-05T16:13:42.251Z,26.70
2019-04-05T16:17:58.948Z,30.80
2019-04-05T16:22:15.464Z,33.67
2019-04-05T16:26:31.944Z,34.43
2019-04-05T16:30:48.494Z,32.30
2019-04-05T16:35:06.127Z,31.37
2019-04-05T16:39:22.639Z,32.70
2019-04-05T16:43:39.372Z,30.97
2019-04-05T16:47:55.862Z,29.87
2019-04-05T16:52:12.801Z,30.03
2019-04-05T16:56:29.526Z,36.80
2019-04-05T17:00:46.469Z,36.20
2019-04-05T17:05:05.370Z,32.60
2019-04-05T17:09:22.102Z,24.37
2019-04-05T17:13:38.671Z,30.27
2019-04-05T17:17:55.409Z,24.90
2019-04-05T17:22:11.907Z,19.80
2019-04-05T17:26:28.432Z,29.53
2019-04-05T17:30:44.955Z,25.00
2019-04-05T17:35:01.661Z,23.03
2019-04-05T17:39:19.588Z,20.93
2019-04-05T17:43:36.240Z,19.83
2019-04-05T17:47:52.743Z,20.63
2019-04-05T17:52:09.250Z,20.83
2019-04-05T17:56:27.667Z,17.57
2019-04-05T18:00:44.715Z,16.77
2019-04-05T18:05:05.473Z,21.13
2019-04-05T18:09:21.984Z,20.47
2019-04-05T18:13:38.522Z,21.20
2019-04-05T18:17:56.146Z,26.07
2019-04-05T18:22:12.876Z,20.17
2019-04-05T18:26:29.462Z,21.50
2019-04-05T18:30:46.478Z,21.10
2019-04-05T18:35:05.909Z,18.00
2019-04-05T18:39:22.910Z,22.47
2019-04-05T18:43:41.198Z,19.40
2019-04-05T18:47:58.980Z,21.50
2019-04-05T18:52:15.634Z,19.73
2019-04-05T18:56:32.859Z,22.67
2019-04-05T19:00:49.494Z,20.43
2019-04-05T19:05:06.525Z,21.57
2019-04-05T19:09:23.426Z,20.20
2019-04-05T19:13:40.057Z,19.00
2019-04-05T19:17:58.468Z,20.90
2019-04-05T19:22:15.044Z,20.03
2019-04-05T19:26:31.546Z,21.13
2019-04-05T19:52:22.535Z,19.27
2019-04-05T19:56:39.124Z,17.10
2019-04-05T20:00:55.862Z,17.10
2019-04-05T20:05:14.556Z,21.33
2019-04-05T20:09:31.154Z,21.90
2019-04-05T20:13:47.640Z,24.60
2019-04-05T20:18:05.289Z,26.17
2019-04-05T20:22:22.127Z,19.07
2019-04-05T20:26:38.629Z,16.67
2019-04-05T20:30:55.656Z,23.90
2019-04-05T20:35:12.299Z,26.33
2019-04-05T20:39:29.198Z,22.73
2019-04-05T20:43:45.712Z,23.77
2019-04-05T20:48:03.447Z,18.47
2019-04-05T20:52:22.827Z,21.97
2019-04-05T20:56:39.697Z,16.17
2019-04-05T21:00:56.602Z,15.03
2019-04-05T21:05:13.514Z,19.73
2019-04-05T21:09:30.158Z,20.97
2019-04-05T21:13:47.022Z,24.77
2019-04-05T21:18:03.677Z,21.33
2019-04-05T21:22:20.203Z,17.43
2019-04-05T21:26:37.053Z,19.37
2019-04-05T21:30:55.551Z,22.47
2019-04-05T21:35:12.032Z,31.27
2019-04-05T21:39:28.514Z,33.13
2019-04-05T21:43:45.055Z,34.27
2019-04-05T21:48:01.661Z,30.13
2019-04-05T21:52:18.223Z,30.30
2019-04-05T21:56:34.731Z,29.90
2019-04-05T22:00:53.660Z,25.43
2019-04-05T22:05:10.392Z,20.50
2019-04-05T22:09:27.132Z,15.93
2019-04-05T22:13:43.642Z,13.77
2019-04-05T22:18:00.196Z,22.23
2019-04-05T22:22:16.773Z,19.83
2019-04-05T22:26:33.253Z,17.77
2019-04-05T22:30:49.955Z,15.90
2019-04-05T22:35:06.528Z,15.83
2019-04-05T22:39:23.060Z,13.03
2019-04-05T22:43:39.622Z,10.73
2019-04-05T22:47:56.115Z,10.80
2019-04-05T22:52:12.815Z,11.77
2019-04-05T22:56:29.724Z,17.37
2019-04-05T23:00:46.193Z,16.47
2019-04-05T23:05:04.947Z,17.40
2019-04-05T23:09:21.963Z,20.57
2019-04-05T23:13:38.451Z,16.77
2019-04-05T23:17:54.939Z,15.17
2019-04-05T23:22:11.997Z,18.37
2019-04-05T23:26:29.178Z,17.30
2019-04-05T23:30:45.841Z,11.80
2019-04-05T23:35:06.023Z,21.27
2019-04-05T23:39:22.528Z,16.77
2019-04-05T23:43:39.138Z,13.23
2019-04-05T23:47:55.609Z,21.07
2019-04-05T23:52:12.108Z,16.00
2019-04-05T23:56:28.700Z,26.90
